sensor_id;sensor_type;location;lat;lon;timestamp;pressure;altitude;pressure_sealevel;temperature;humidity
71974;BME280;59840;52.122;5.404;2023-07-20T00:02:05;101574.38;;;15.97;100.00
71974;BME280;59840;52.122;5.404;2023-07-20T00:04:34;101581.03;;;16.00;100.00
71974;BME280;59840;52.122;5.404;2023-07-20T00:07:01;101578.38;;;16.00;100.00
71974;BME280;59840;52.122;5.404;2023-07-20T00:09:28;101584.25;;;16.02;100.00
71974;BME280;59840;52.122;5.404;2023-07-20T00:11:55;101585.53;;;15.94;100.00
71974;BME280;59840;52.122;5.404;2023-07-20T00:14:22;101577.03;;;15.92;100.00
71974;BME280;59840;52.122;5.404;2023-07-20T00:16:50;101575.44;;;15.91;100.00
71974;BME280;59840;52.122;5.404;2023-07-20T00:19:26;101571.69;;;15.87;100.00
71974;BME280;59840;52.122;5.404;2023-07-20T00:21:54;101577.53;;;15.84;100.00
71974;BME280;59840;52.122;5.404;2023-07-20T00:24:21;101575.38;;;15.76;100.00
71974;BME280;59840;52.122;5.404;2023-07-20T00:26:48;101592.41;;;15.75;100.00
71974;BME280;59840;52.122;5.404;2023-07-20T00:29:15;101588.66;;;15.71;100.00
71974;BME280;59840;52.122;5.404;2023-07-20T00:31:42;101580.09;;;15.64;100.00
71974;BME280;59840;52.122;5.404;2023-07-20T00:34:12;101582.78;;;15.64;100.00
71974;BME280;59840;52.122;5.404;2023-07-20T00:36:38;101572.06;;;15.54;100.00
71974;BME280;59840;52.122;5.404;2023-07-20T00:39:05;101571.50;;;15.47;100.00
71974;BME280;59840;52.122;5.404;2023-07-20T00:41:32;101574.16;;;15.47;100.00
71974;BME280;59840;52.122;5.404;2023-07-20T00:43:59;101569.63;;;15.42;100.00
71974;BME280;59840;52.122;5.404;2023-07-20T00:46:28;101575.19;;;15.40;100.00
71974;BME280;59840;52.122;5.404;2023-07-20T00:48:55;101569.00;;;15.30;100.00
71974;BME280;59840;52.122;5.404;2023-07-20T00:51:23;101573.78;;;15.28;100.00
71974;BME280;59840;52.122;5.404;2023-07-20T00:53:50;101573.53;;;15.29;100.00
71974;BME280;59840;52.122;5.404;2023-07-20T00:56:17;101574.56;;;15.23;100.00
71974;BME280;59840;52.122;5.404;2023-07-20T00:58:45;101578.28;;;15.22;100.00
71974;BME280;59840;52.122;5.404;2023-07-20T01:01:15;101577.19;;;15.18;100.00
71974;BME280;59840;52.122;5.404;2023-07-20T01:03:42;101576.38;;;15.13;100.00
71974;BME280;59840;52.122;5.404;2023-07-20T01:11:38;101579.28;;;15.11;100.00
71974;BME280;59840;52.122;5.404;2023-07-20T01:14:06;101577.66;;;15.10;100.00
71974;BME280;59840;52.122;5.404;2023-07-20T01:16:38;101573.63;;;15.02;100.00
71974;BME280;59840;52.122;5.404;2023-07-20T01:19:05;101573.63;;;15.02;100.00
71974;BME280;59840;52.122;5.404;2023-07-20T01:21:40;101576.53;;;15.01;100.00
71974;BME280;59840;52.122;5.404;2023-07-20T01:29:26;101576.47;;;14.91;98.86
71974;BME280;59840;52.122;5.404;2023-07-20T01:32:01;101577.47;;;14.80;98.11
71974;BME280;59840;52.122;5.404;2023-07-20T01:34:31;101576.63;;;14.74;99.24
71974;BME280;59840;52.122;5.404;2023-07-20T01:36:59;101580.56;;;14.71;99.14
71974;BME280;59840;52.122;5.404;2023-07-20T01:39:31;101581.94;;;14.74;98.65
71974;BME280;59840;52.122;5.404;2023-07-20T01:42:01;101579.97;;;14.64;97.76
71974;BME280;59840;52.122;5.404;2023-07-20T01:44:28;101574.13;;;14.62;97.55
71974;BME280;59840;52.122;5.404;2023-07-20T01:46:55;101576.72;;;14.57;97.27
71974;BME280;59840;52.122;5.404;2023-07-20T01:49:23;101576.66;;;14.47;96.31
71974;BME280;59840;52.122;5.404;2023-07-20T01:51:52;101571.16;;;14.32;96.59
71974;BME280;59840;52.122;5.404;2023-07-20T01:54:19;101582.56;;;14.32;95.74
71974;BME280;59840;52.122;5.404;2023-07-20T01:56:48;101585.16;;;14.00;96.40
71974;BME280;59840;52.122;5.404;2023-07-20T01:59:17;101591.78;;;13.98;96.63
71974;BME280;59840;52.122;5.404;2023-07-20T02:01:44;101591.13;;;13.86;96.82
71974;BME280;59840;52.122;5.404;2023-07-20T02:04:11;101590.31;;;13.85;96.22
71974;BME280;59840;52.122;5.404;2023-07-20T02:06:39;101594.00;;;13.84;96.86
71974;BME280;59840;52.122;5.404;2023-07-20T02:09:06;101587.09;;;13.83;97.18
71974;BME280;59840;52.122;5.404;2023-07-20T02:11:32;101580.69;;;13.79;97.20
71974;BME280;59840;52.122;5.404;2023-07-20T02:13:59;101589.53;;;13.90;98.00
71974;BME280;59840;52.122;5.404;2023-07-20T02:16:26;101580.41;;;14.02;97.97
71974;BME280;59840;52.122;5.404;2023-07-20T02:18:53;101587.28;;;13.98;98.68
71974;BME280;59840;52.122;5.404;2023-07-20T02:21:19;101591.22;;;13.96;99.30
71974;BME280;59840;52.122;5.404;2023-07-20T02:23:46;101578.81;;;14.01;100.00
71974;BME280;59840;52.122;5.404;2023-07-20T02:26:15;101589.53;;;14.12;100.00
71974;BME280;59840;52.122;5.404;2023-07-20T02:28:42;101597.50;;;14.12;99.49
71974;BME280;59840;52.122;5.404;2023-07-20T02:31:08;101592.13;;;14.06;99.61
71974;BME280;59840;52.122;5.404;2023-07-20T02:33:35;101587.06;;;14.05;99.86
71974;BME280;59840;52.122;5.404;2023-07-20T02:36:02;101583.06;;;14.02;99.46
71974;BME280;59840;52.122;5.404;2023-07-20T02:38:28;101583.63;;;14.04;99.27
71974;BME280;59840;52.122;5.404;2023-07-20T02:40:57;101587.28;;;13.98;98.81
71974;BME280;59840;52.122;5.404;2023-07-20T02:43:24;101582.75;;;13.99;99.83
71974;BME280;59840;52.122;5.404;2023-07-20T02:45:50;101578.00;;;14.01;98.79
71974;BME280;59840;52.122;5.404;2023-07-20T02:48:17;101586.72;;;13.96;98.26
71974;BME280;59840;52.122;5.404;2023-07-20T02:50:45;101587.38;;;13.87;97.46
71974;BME280;59840;52.122;5.404;2023-07-20T02:53:12;101585.38;;;13.72;97.83
71974;BME280;59840;52.122;5.404;2023-07-20T02:55:39;101592.22;;;13.68;97.67
71974;BME280;59840;52.122;5.404;2023-07-20T02:58:05;101591.16;;;13.69;97.66
71974;BME280;59840;52.122;5.404;2023-07-20T03:00:32;101601.78;;;13.69;97.31
71974;BME280;59840;52.122;5.404;2023-07-20T03:02:59;101608.19;;;13.73;96.33
71974;BME280;59840;52.122;5.404;2023-07-20T03:05:28;101603.25;;;13.60;96.78
71974;BME280;59840;52.122;5.404;2023-07-20T03:07:55;101609.72;;;13.47;96.34
71974;BME280;59840;52.122;5.404;2023-07-20T03:10:25;101612.41;;;13.52;96.55
71974;BME280;59840;52.122;5.404;2023-07-20T03:12:52;101621.81;;;13.60;97.16
71974;BME280;59840;52.122;5.404;2023-07-20T03:15:20;101619.22;;;13.65;95.99
71974;BME280;59840;52.122;5.404;2023-07-20T03:17:49;101626.13;;;13.66;94.85
71974;BME280;59840;52.122;5.404;2023-07-20T03:20:16;101626.88;;;13.61;95.29
71974;BME280;59840;52.122;5.404;2023-07-20T03:22:44;101628.06;;;13.70;97.37
71974;BME280;59840;52.122;5.404;2023-07-20T03:25:12;101642.50;;;13.80;97.01
71974;BME280;59840;52.122;5.404;2023-07-20T03:27:38;101634.31;;;13.81;97.22
71974;BME280;59840;52.122;5.404;2023-07-20T03:30:06;101629.91;;;13.70;95.21
71974;BME280;59840;52.122;5.404;2023-07-20T03:32:33;101627.47;;;13.30;94.22
71974;BME280;59840;52.122;5.404;2023-07-20T03:35:00;101621.13;;;13.14;97.17
71974;BME280;59840;52.122;5.404;2023-07-20T03:37:27;101620.75;;;13.22;96.81
71974;BME280;59840;52.122;5.404;2023-07-20T03:39:54;101627.97;;;13.10;95.82
71974;BME280;59840;52.122;5.404;2023-07-20T03:42:20;101624.19;;;13.06;95.23
71974;BME280;59840;52.122;5.404;2023-07-20T03:44:51;101630.41;;;12.83;96.02
71974;BME280;59840;52.122;5.404;2023-07-20T03:47:18;101632.59;;;12.69;96.79
71974;BME280;59840;52.122;5.404;2023-07-20T03:49:47;101632.97;;;12.61;96.85
71974;BME280;59840;52.122;5.404;2023-07-20T03:52:17;101633.53;;;12.63;97.22
71974;BME280;59840;52.122;5.404;2023-07-20T03:54:44;101640.25;;;12.54;97.28
71974;BME280;59840;52.122;5.404;2023-07-20T03:57:11;101642.91;;;12.54;97.72
71974;BME280;59840;52.122;5.404;2023-07-20T03:59:39;101640.44;;;12.64;98.44
71974;BME280;59840;52.122;5.404;2023-07-20T04:02:05;101635.22;;;12.69;98.21
71974;BME280;59840;52.122;5.404;2023-07-20T04:04:32;101633.16;;;12.71;98.08
71974;BME280;59840;52.122;5.404;2023-07-20T04:07:01;101638.69;;;12.70;97.11
71974;BME280;59840;52.122;5.404;2023-07-20T04:09:28;101640.91;;;12.61;97.31
71974;BME280;59840;52.122;5.404;2023-07-20T04:11:58;101645.69;;;12.48;97.82
71974;BME280;59840;52.122;5.404;2023-07-20T04:14:27;101652.84;;;12.47;98.72
71974;BME280;59840;52.122;5.404;2023-07-20T04:16:54;101648.03;;;12.44;98.46
71974;BME280;59840;52.122;5.404;2023-07-20T04:19:21;101655.75;;;12.34;98.28
71974;BME280;59840;52.122;5.404;2023-07-20T04:21:47;101650.09;;;12.42;98.81
71974;BME280;59840;52.122;5.404;2023-07-20T04:24:14;101652.91;;;12.52;98.64
71974;BME280;59840;52.122;5.404;2023-07-20T04:26:41;101665.13;;;12.53;98.77
71974;BME280;59840;52.122;5.404;2023-07-20T04:29:07;101659.91;;;12.58;98.90
71974;BME280;59840;52.122;5.404;2023-07-20T04:31:36;101660.56;;;12.65;98.65
71974;BME280;59840;52.122;5.404;2023-07-20T04:34:05;101659.09;;;12.58;98.30
71974;BME280;59840;52.122;5.404;2023-07-20T04:36:32;101659.41;;;12.45;98.92
71974;BME280;59840;52.122;5.404;2023-07-20T04:39:06;101665.00;;;12.48;99.16
71974;BME280;59840;52.122;5.404;2023-07-20T04:41:54;101669.56;;;12.64;99.57
71974;BME280;59840;52.122;5.404;2023-07-20T04:44:21;101665.81;;;12.77;98.59
71974;BME280;59840;52.122;5.404;2023-07-20T04:46:48;101674.34;;;12.79;98.77
71974;BME280;59840;52.122;5.404;2023-07-20T04:49:14;101671.03;;;12.72;98.46
71974;BME280;59840;52.122;5.404;2023-07-20T04:51:41;101671.03;;;12.72;99.02
71974;BME280;59840;52.122;5.404;2023-07-20T04:54:08;101672.78;;;12.83;99.42
71974;BME280;59840;52.122;5.404;2023-07-20T04:56:34;101671.59;;;12.91;100.00
71974;BME280;59840;52.122;5.404;2023-07-20T04:59:05;101666.78;;;13.16;100.00
71974;BME280;59840;52.122;5.404;2023-07-20T05:01:31;101665.63;;;13.29;99.95
71974;BME280;59840;52.122;5.404;2023-07-20T05:03:58;101671.88;;;13.56;100.00
71974;BME280;59840;52.122;5.404;2023-07-20T05:06:28;101667.84;;;13.70;99.80
71974;BME280;59840;52.122;5.404;2023-07-20T05:08:57;101666.16;;;13.86;100.00
71974;BME280;59840;52.122;5.404;2023-07-20T05:11:24;101667.66;;;13.99;100.00
71974;BME280;59840;52.122;5.404;2023-07-20T05:13:50;101666.50;;;14.12;100.00
71974;BME280;59840;52.122;5.404;2023-07-20T05:16:17;101670.44;;;14.31;100.00
71974;BME280;59840;52.122;5.404;2023-07-20T05:18:44;101676.34;;;14.60;99.97
71974;BME280;59840;52.122;5.404;2023-07-20T05:21:11;101666.94;;;14.74;99.08
71974;BME280;59840;52.122;5.404;2023-07-20T05:23:38;101663.63;;;14.89;99.02
71974;BME280;59840;52.122;5.404;2023-07-20T05:26:04;101666.00;;;14.90;99.44
71974;BME280;59840;52.122;5.404;2023-07-20T05:28:31;101663.41;;;14.95;98.93
71974;BME280;59840;52.122;5.404;2023-07-20T05:31:01;101665.81;;;14.97;99.00
71974;BME280;59840;52.122;5.404;2023-07-20T05:33:28;101669.06;;;15.04;99.09
71974;BME280;59840;52.122;5.404;2023-07-20T05:35:55;101677.06;;;15.09;98.75
71974;BME280;59840;52.122;5.404;2023-07-20T05:38:22;101671.25;;;15.12;98.99
71974;BME280;59840;52.122;5.404;2023-07-20T05:40:50;101670.25;;;15.18;98.75
71974;BME280;59840;52.122;5.404;2023-07-20T05:43:16;101669.75;;;15.21;98.74
71974;BME280;59840;52.122;5.404;2023-07-20T05:45:43;101680.13;;;15.28;98.37
71974;BME280;59840;52.122;5.404;2023-07-20T05:48:14;101671.44;;;15.37;99.18
71974;BME280;59840;52.122;5.404;2023-07-20T05:50:43;101667.22;;;15.41;98.53
71974;BME280;59840;52.122;5.404;2023-07-20T05:53:10;101667.81;;;15.54;100.00
71974;BME280;59840;52.122;5.404;2023-07-20T05:55:38;101664.69;;;15.57;98.95
71974;BME280;59840;52.122;5.404;2023-07-20T05:58:08;101664.44;;;15.58;98.67
71974;BME280;59840;52.122;5.404;2023-07-20T06:00:35;101663.38;;;15.59;98.19
71974;BME280;59840;52.122;5.404;2023-07-20T06:03:04;101660.97;;;15.63;97.46
71974;BME280;59840;52.122;5.404;2023-07-20T06:05:31;101665.00;;;15.70;98.65
71974;BME280;59840;52.122;5.404;2023-07-20T06:07:57;101682.91;;;15.80;98.38
71974;BME280;59840;52.122;5.404;2023-07-20T06:10:26;101678.97;;;15.88;100.00
71974;BME280;59840;52.122;5.404;2023-07-20T06:12:53;101680.31;;;15.90;97.99
71974;BME280;59840;52.122;5.404;2023-07-20T06:15:31;101676.03;;;15.94;98.72
71974;BME280;59840;52.122;5.404;2023-07-20T06:17:58;101678.72;;;15.99;98.05
71974;BME280;59840;52.122;5.404;2023-07-20T06:20:25;101686.22;;;16.07;97.43
71974;BME280;59840;52.122;5.404;2023-07-20T06:22:52;101677.47;;;16.12;97.51
71974;BME280;59840;52.122;5.404;2023-07-20T06:25:19;101683.34;;;16.19;97.01
71974;BME280;59840;52.122;5.404;2023-07-20T06:27:49;101688.44;;;16.26;97.59
71974;BME280;59840;52.122;5.404;2023-07-20T06:30:17;101687.63;;;16.25;95.32
71974;BME280;59840;52.122;5.404;2023-07-20T06:32:43;101686.81;;;16.30;94.65
71974;BME280;59840;52.122;5.404;2023-07-20T06:35:10;101685.22;;;16.29;94.80
71974;BME280;59840;52.122;5.404;2023-07-20T06:37:39;101690.56;;;16.29;93.35
71974;BME280;59840;52.122;5.404;2023-07-20T06:40:08;101683.63;;;16.33;95.02
71974;BME280;59840;52.122;5.404;2023-07-20T06:42:44;101687.94;;;16.39;95.04
71974;BME280;59840;52.122;5.404;2023-07-20T06:45:14;101696.47;;;16.41;91.49
71974;BME280;59840;52.122;5.404;2023-07-20T06:47:41;101693.53;;;16.42;90.77
71974;BME280;59840;52.122;5.404;2023-07-20T06:50:08;101700.19;;;16.40;91.41
71974;BME280;59840;52.122;5.404;2023-07-20T06:52:36;101702.88;;;16.45;90.63
71974;BME280;59840;52.122;5.404;2023-07-20T06:55:06;101705.00;;;16.48;88.90
71974;BME280;59840;52.122;5.404;2023-07-20T06:57:33;101704.22;;;16.53;88.09
71974;BME280;59840;52.122;5.404;2023-07-20T07:00:02;101695.44;;;16.52;87.00
71974;BME280;59840;52.122;5.404;2023-07-20T07:02:30;101702.38;;;16.63;89.07
71974;BME280;59840;52.122;5.404;2023-07-20T07:04:57;101705.63;;;16.70;89.09
71974;BME280;59840;52.122;5.404;2023-07-20T07:07:43;101717.03;;;16.61;89.05
71974;BME280;59840;52.122;5.404;2023-07-20T07:10:10;101706.66;;;16.59;88.89
71974;BME280;59840;52.122;5.404;2023-07-20T07:12:37;101706.09;;;16.52;88.59
71974;BME280;59840;52.122;5.404;2023-07-20T07:15:04;101712.47;;;16.51;90.57
71974;BME280;59840;52.122;5.404;2023-07-20T07:17:32;101711.13;;;16.43;86.33
71974;BME280;59840;52.122;5.404;2023-07-20T07:20:00;101705.78;;;16.38;85.85
71974;BME280;59840;52.122;5.404;2023-07-20T07:22:26;101702.31;;;16.38;86.60
71974;BME280;59840;52.122;5.404;2023-07-20T07:24:53;101703.09;;;16.33;86.14
71974;BME280;59840;52.122;5.404;2023-07-20T07:27:20;101711.34;;;16.37;85.15
71974;BME280;59840;52.122;5.404;2023-07-20T07:29:47;101705.78;;;16.43;85.37
71974;BME280;59840;52.122;5.404;2023-07-20T07:32:15;101708.22;;;16.55;84.85
71974;BME280;59840;52.122;5.404;2023-07-20T07:34:43;101714.13;;;16.62;83.26
71974;BME280;59840;52.122;5.404;2023-07-20T07:37:13;101712.78;;;16.65;82.67
71974;BME280;59840;52.122;5.404;2023-07-20T07:39:39;101711.47;;;16.67;83.56
71974;BME280;59840;52.122;5.404;2023-07-20T07:42:06;101709.91;;;16.77;82.71
71974;BME280;59840;52.122;5.404;2023-07-20T07:44:33;101715.81;;;16.94;80.88
71974;BME280;59840;52.122;5.404;2023-07-20T07:47:00;101716.06;;;17.07;79.48
71974;BME280;59840;52.122;5.404;2023-07-20T07:49:27;101721.94;;;17.20;77.64
71974;BME280;59840;52.122;5.404;2023-07-20T07:51:54;101714.75;;;17.20;73.76
71974;BME280;59840;52.122;5.404;2023-07-20T07:54:20;101714.22;;;17.23;75.59
71974;BME280;59840;52.122;5.404;2023-07-20T07:56:47;101716.84;;;17.33;76.87
71974;BME280;59840;52.122;5.404;2023-07-20T07:59:14;101708.03;;;17.33;76.00
71974;BME280;59840;52.122;5.404;2023-07-20T08:01:40;101712.03;;;17.35;75.86
71974;BME280;59840;52.122;5.404;2023-07-20T08:04:07;101715.53;;;17.26;74.69
71974;BME280;59840;52.122;5.404;2023-07-20T08:06:34;101716.88;;;17.18;77.36
71974;BME280;59840;52.122;5.404;2023-07-20T08:09:01;101717.91;;;17.02;77.27
71974;BME280;59840;52.122;5.404;2023-07-20T08:11:28;101718.72;;;16.92;77.80
71974;BME280;59840;52.122;5.404;2023-07-20T08:13:57;101712.84;;;16.80;80.01
71974;BME280;59840;52.122;5.404;2023-07-20T08:16:23;101704.53;;;16.66;81.19
71974;BME280;59840;52.122;5.404;2023-07-20T08:18:54;101706.66;;;16.64;80.87
71974;BME280;59840;52.122;5.404;2023-07-20T08:21:21;101711.72;;;16.61;81.45
71974;BME280;59840;52.122;5.404;2023-07-20T08:23:47;101721.00;;;16.53;83.60
71974;BME280;59840;52.122;5.404;2023-07-20T08:26:14;101719.38;;;16.42;82.89
71974;BME280;59840;52.122;5.404;2023-07-20T08:28:43;101720.72;;;16.50;83.36
71974;BME280;59840;52.122;5.404;2023-07-20T08:31:11;101714.16;;;16.78;76.09
71974;BME280;59840;52.122;5.404;2023-07-20T08:33:38;101713.91;;;17.04;72.05
71974;BME280;59840;52.122;5.404;2023-07-20T08:36:04;101719.53;;;17.23;71.21
71974;BME280;59840;52.122;5.404;2023-07-20T08:38:32;101717.66;;;17.39;69.14
71974;BME280;59840;52.122;5.404;2023-07-20T08:40:59;101716.59;;;17.55;62.88
71974;BME280;59840;52.122;5.404;2023-07-20T08:43:27;101723.50;;;17.71;64.76
71974;BME280;59840;52.122;5.404;2023-07-20T08:45:55;101723.47;;;17.92;64.87
71974;BME280;59840;52.122;5.404;2023-07-20T08:48:27;101717.00;;;18.03;64.30
71974;BME280;59840;52.122;5.404;2023-07-20T08:50:55;101710.56;;;18.19;62.87
71974;BME280;59840;52.122;5.404;2023-07-20T08:53:22;101709.16;;;18.32;62.74
71974;BME280;59840;52.122;5.404;2023-07-20T08:55:51;101712.81;;;18.46;63.02
71974;BME280;59840;52.122;5.404;2023-07-20T08:58:20;101711.97;;;18.56;62.78
71974;BME280;59840;52.122;5.404;2023-07-20T09:00:49;101710.88;;;18.67;61.20
71974;BME280;59840;52.122;5.404;2023-07-20T09:03:17;101717.22;;;18.76;61.03
71974;BME280;59840;52.122;5.404;2023-07-20T09:05:44;101712.59;;;18.87;61.27
71974;BME280;59840;52.122;5.404;2023-07-20T09:08:12;101712.94;;;18.75;61.67
71974;BME280;59840;52.122;5.404;2023-07-20T09:10:39;101715.84;;;18.84;60.47
71974;BME280;59840;52.122;5.404;2023-07-20T09:13:05;101711.28;;;18.84;57.66
71974;BME280;59840;52.122;5.404;2023-07-20T09:15:35;101699.84;;;18.73;62.95
71974;BME280;59840;52.122;5.404;2023-07-20T09:18:02;101706.63;;;18.56;60.45
71974;BME280;59840;52.122;5.404;2023-07-20T09:20:31;101704.88;;;18.36;60.91
71974;BME280;59840;52.122;5.404;2023-07-20T09:23:04;101707.88;;;18.24;64.05
71974;BME280;59840;52.122;5.404;2023-07-20T09:25:32;101707.63;;;18.16;64.98
71974;BME280;59840;52.122;5.404;2023-07-20T09:28:02;101712.53;;;18.48;63.64
71974;BME280;59840;52.122;5.404;2023-07-20T09:30:31;101702.34;;;18.55;67.95
71974;BME280;59840;52.122;5.404;2023-07-20T09:32:58;101712.25;;;18.54;63.76
71974;BME280;59840;52.122;5.404;2023-07-20T09:35:26;101710.41;;;18.50;63.99
71974;BME280;59840;52.122;5.404;2023-07-20T09:38:06;101711.25;;;18.40;63.29
71974;BME280;59840;52.122;5.404;2023-07-20T09:40:38;101712.91;;;18.31;63.43
71974;BME280;59840;52.122;5.404;2023-07-20T09:43:09;101706.25;;;18.28;65.36
71974;BME280;59840;52.122;5.404;2023-07-20T09:45:40;101711.72;;;18.52;60.92
71974;BME280;59840;52.122;5.404;2023-07-20T09:48:11;101705.69;;;18.81;58.33
71974;BME280;59840;52.122;5.404;2023-07-20T09:50:42;101713.31;;;19.02;58.80
71974;BME280;59840;52.122;5.404;2023-07-20T09:53:11;101701.16;;;19.15;56.68
71974;BME280;59840;52.122;5.404;2023-07-20T09:55:40;101702.78;;;19.11;56.57
71974;BME280;59840;52.122;5.404;2023-07-20T09:58:09;101700.28;;;18.91;55.12
71974;BME280;59840;52.122;5.404;2023-07-20T10:00:38;101699.13;;;18.63;59.97
71974;BME280;59840;52.122;5.404;2023-07-20T10:03:08;101699.97;;;18.53;62.60
71974;BME280;59840;52.122;5.404;2023-07-20T10:06:08;101705.06;;;18.50;59.13
71974;BME280;59840;52.122;5.404;2023-07-20T10:08:40;101692.25;;;18.47;61.89
71974;BME280;59840;52.122;5.404;2023-07-20T10:11:11;101706.38;;;18.52;61.07
71974;BME280;59840;52.122;5.404;2023-07-20T10:13:41;101697.66;;;18.81;58.21
71974;BME280;59840;52.122;5.404;2023-07-20T10:16:15;101691.56;;;19.09;56.17
71974;BME280;59840;52.122;5.404;2023-07-20T10:21:26;101687.47;;;19.51;55.96
71974;BME280;59840;52.122;5.404;2023-07-20T10:23:57;101690.66;;;19.53;54.66
71974;BME280;59840;52.122;5.404;2023-07-20T10:26:25;101688.41;;;19.65;53.57
71974;BME280;59840;52.122;5.404;2023-07-20T10:28:53;101687.69;;;19.54;54.38
71974;BME280;59840;52.122;5.404;2023-07-20T10:31:20;101684.81;;;19.46;56.52
71974;BME280;59840;52.122;5.404;2023-07-20T10:33:49;101687.66;;;19.30;58.77
71974;BME280;59840;52.122;5.404;2023-07-20T10:36:24;101684.22;;;19.25;59.00
71974;BME280;59840;52.122;5.404;2023-07-20T10:38:53;101686.56;;;19.31;59.26
71974;BME280;59840;52.122;5.404;2023-07-20T10:41:34;101684.28;;;19.43;56.53
71974;BME280;59840;52.122;5.404;2023-07-20T10:44:02;101680.13;;;19.61;53.54
71974;BME280;59840;52.122;5.404;2023-07-20T10:49:08;101679.53;;;19.69;51.17
71974;BME280;59840;52.122;5.404;2023-07-20T10:51:59;101678.03;;;19.82;52.68
71974;BME280;59840;52.122;5.404;2023-07-20T10:56:55;101678.22;;;19.67;54.73
71974;BME280;59840;52.122;5.404;2023-07-20T11:01:55;101680.13;;;19.32;55.92
71974;BME280;59840;52.122;5.404;2023-07-20T11:04:42;101669.53;;;19.22;55.61
71974;BME280;59840;52.122;5.404;2023-07-20T11:07:09;101668.50;;;19.42;53.46
71974;BME280;59840;52.122;5.404;2023-07-20T11:09:38;101666.47;;;19.63;52.88
71974;BME280;59840;52.122;5.404;2023-07-20T11:12:13;101664.78;;;19.72;53.53
71974;BME280;59840;52.122;5.404;2023-07-20T11:15:00;101661.03;;;19.92;52.13
71974;BME280;59840;52.122;5.404;2023-07-20T11:17:31;101657.50;;;19.96;52.16
71974;BME280;59840;52.122;5.404;2023-07-20T11:19:59;101664.63;;;19.82;50.63
71974;BME280;59840;52.122;5.404;2023-07-20T11:22:32;101660.50;;;19.71;50.77
71974;BME280;59840;52.122;5.404;2023-07-20T11:24:59;101661.16;;;19.82;50.37
71974;BME280;59840;52.122;5.404;2023-07-20T11:27:26;101649.91;;;20.03;52.66
71974;BME280;59840;52.122;5.404;2023-07-20T11:29:54;101648.84;;;20.23;54.68
71974;BME280;59840;52.122;5.404;2023-07-20T11:32:22;101653.69;;;20.21;52.16
71974;BME280;59840;52.122;5.404;2023-07-20T11:34:49;101643.31;;;20.15;48.53
71974;BME280;59840;52.122;5.404;2023-07-20T11:37:16;101642.97;;;20.21;51.27
71974;BME280;59840;52.122;5.404;2023-07-20T11:39:44;101648.94;;;20.37;49.82
71974;BME280;59840;52.122;5.404;2023-07-20T11:42:11;101647.69;;;20.48;50.70
71974;BME280;59840;52.122;5.404;2023-07-20T11:44:38;101638.16;;;20.42;49.90
71974;BME280;59840;52.122;5.404;2023-07-20T11:47:09;101644.72;;;20.50;51.66
71974;BME280;59840;52.122;5.404;2023-07-20T11:49:43;101638.84;;;20.66;52.06
71974;BME280;59840;52.122;5.404;2023-07-20T11:52:15;101643.06;;;20.72;50.23
71974;BME280;59840;52.122;5.404;2023-07-20T11:54:43;101634.22;;;20.53;50.25
71974;BME280;59840;52.122;5.404;2023-07-20T11:57:21;101634.16;;;20.58;54.82
71974;BME280;59840;52.122;5.404;2023-07-20T11:59:54;101634.97;;;20.40;49.99
71974;BME280;59840;52.122;5.404;2023-07-20T12:02:26;101631.81;;;20.14;48.77
71974;BME280;59840;52.122;5.404;2023-07-20T12:04:54;101630.66;;;20.01;49.29
71974;BME280;59840;52.122;5.404;2023-07-20T12:07:21;101638.06;;;19.86;51.20
71974;BME280;59840;52.122;5.404;2023-07-20T12:10:08;101627.19;;;19.77;51.53
71974;BME280;59840;52.122;5.404;2023-07-20T12:12:43;101632.06;;;19.75;51.66
71974;BME280;59840;52.122;5.404;2023-07-20T12:15:17;101627.66;;;19.84;50.21
71974;BME280;59840;52.122;5.404;2023-07-20T12:17:46;101624.56;;;20.15;50.33
71974;BME280;59840;52.122;5.404;2023-07-20T12:20:28;101616.09;;;20.45;51.23
71974;BME280;59840;52.122;5.404;2023-07-20T12:22:58;101612.69;;;20.58;48.96
71974;BME280;59840;52.122;5.404;2023-07-20T12:25:41;101616.03;;;20.50;50.57
71974;BME280;59840;52.122;5.404;2023-07-20T12:28:16;101622.53;;;20.25;53.37
71974;BME280;59840;52.122;5.404;2023-07-20T12:30:43;101617.31;;;20.15;56.21
71974;BME280;59840;52.122;5.404;2023-07-20T12:33:11;101623.69;;;20.00;55.61
71974;BME280;59840;52.122;5.404;2023-07-20T12:35:42;101616.31;;;19.92;53.30
71974;BME280;59840;52.122;5.404;2023-07-20T12:38:12;101610.66;;;20.13;54.73
71974;BME280;59840;52.122;5.404;2023-07-20T12:40:39;101609.66;;;20.27;52.57
71974;BME280;59840;52.122;5.404;2023-07-20T12:43:07;101610.59;;;20.18;52.28
71974;BME280;59840;52.122;5.404;2023-07-20T12:45:34;101616.13;;;20.07;53.03
71974;BME280;59840;52.122;5.404;2023-07-20T12:48:01;101612.97;;;20.00;51.69
71974;BME280;59840;52.122;5.404;2023-07-20T12:50:27;101608.78;;;19.94;52.41
71974;BME280;59840;52.122;5.404;2023-07-20T12:52:54;101612.25;;;19.95;54.21
71974;BME280;59840;52.122;5.404;2023-07-20T12:55:21;101604.22;;;19.95;52.14
71974;BME280;59840;52.122;5.404;2023-07-20T12:57:47;101607.34;;;20.02;53.32
71974;BME280;59840;52.122;5.404;2023-07-20T13:00:15;101612.69;;;20.02;59.17
71974;BME280;59840;52.122;5.404;2023-07-20T13:02:42;101612.41;;;20.03;57.74
71974;BME280;59840;52.122;5.404;2023-07-20T13:05:10;101606.38;;;20.12;58.88
71974;BME280;59840;52.122;5.404;2023-07-20T13:07:38;101606.53;;;20.20;57.71
71974;BME280;59840;52.122;5.404;2023-07-20T13:10:09;101611.03;;;20.25;59.28
71974;BME280;59840;52.122;5.404;2023-07-20T13:12:37;101609.44;;;20.24;54.47
71974;BME280;59840;52.122;5.404;2023-07-20T13:15:09;101610.75;;;20.26;57.25
71974;BME280;59840;52.122;5.404;2023-07-20T13:17:37;101604.59;;;20.26;56.30